createdAt,value
2022-11-25T00:01:35.145Z,91.03
2022-11-25T00:04:03.542Z,91.05
2022-11-25T00:06:34.007Z,91.03
2022-11-25T00:09:07.920Z,91.05
2022-11-25T00:11:38.051Z,91.02
2022-11-25T00:14:07.765Z,91.03
2022-11-25T00:16:36.030Z,91.04
2022-11-25T00:19:04.716Z,91.05
2022-11-25T00:21:34.861Z,91.05
2022-11-25T00:24:06.519Z,91.05
2022-11-25T00:26:36.548Z,91.07
2022-11-25T00:29:07.063Z,91.07
2022-11-25T00:31:37.073Z,91.05
2022-11-25T00:34:05.639Z,90.97
2022-11-25T00:36:36.891Z,90.94
2022-11-25T00:39:06.656Z,90.92
2022-11-25T00:41:53.700Z,90.90
2022-11-25T00:44:38.974Z,90.91
2022-11-25T00:47:16.799Z,90.94
2022-11-25T00:49:51.072Z,90.95
2022-11-25T00:52:25.607Z,90.90
2022-11-25T00:54:54.471Z,90.85
2022-11-25T00:57:24.159Z,90.80
2022-11-25T00:59:52.325Z,90.79
2022-11-25T01:02:20.955Z,90.77
2022-11-25T01:04:49.259Z,90.76
2022-11-25T01:07:18.156Z,90.70
2022-11-25T01:09:46.318Z,90.73
2022-11-25T01:12:14.506Z,90.77
2022-11-25T01:14:42.779Z,90.77
2022-11-25T01:17:10.942Z,90.73
2022-11-25T01:19:40.831Z,90.76
2022-11-25T01:22:10.160Z,90.76
2022-11-25T01:24:38.611Z,90.78
2022-11-25T01:27:07.186Z,90.79
2022-11-25T01:29:35.371Z,90.80
2022-11-25T01:32:03.520Z,90.81
2022-11-25T01:34:34.994Z,90.80
2022-11-25T01:37:03.725Z,90.77
2022-11-25T01:39:33.066Z,90.73
2022-11-25T01:42:02.524Z,90.72
2022-11-25T01:44:33.158Z,90.70
2022-11-25T01:47:17.254Z,90.67
2022-11-25T01:50:04.210Z,90.67
2022-11-25T01:52:38.479Z,90.71
2022-11-25T01:55:15.246Z,90.71
2022-11-25T01:57:51.009Z,90.71
2022-11-25T02:00:19.902Z,90.66
2022-11-25T02:02:51.170Z,90.58
2022-11-25T02:05:34.031Z,90.61
2022-11-25T02:08:04.201Z,90.64
2022-11-25T02:10:34.642Z,90.65
2022-11-25T02:13:02.625Z,90.68
2022-11-25T02:15:33.758Z,90.70
2022-11-25T02:18:02.673Z,90.68
2022-11-25T02:20:30.916Z,90.68
2022-11-25T02:23:26.383Z,90.70
2022-11-25T02:25:54.994Z,90.73
2022-11-25T02:28:26.585Z,90.69
2022-11-25T02:30:55.245Z,90.70
2022-11-25T02:33:24.373Z,90.71
2022-11-25T02:36:01.966Z,90.69
2022-11-25T02:38:41.369Z,90.74
2022-11-25T02:41:17.607Z,90.76
2022-11-25T02:43:46.094Z,90.74
2022-11-25T02:46:22.531Z,90.72
2022-11-25T02:49:08.546Z,90.73
2022-11-25T02:51:40.548Z,90.76
2022-11-25T02:54:08.999Z,90.73
2022-11-25T02:56:37.685Z,90.70
2022-11-25T02:59:07.169Z,90.70
2022-11-25T03:01:36.456Z,90.67
2022-11-25T03:04:05.057Z,90.70
2022-11-25T03:06:33.667Z,90.69
2022-11-25T03:09:02.972Z,90.73
2022-11-25T03:11:49.850Z,90.80
2022-11-25T03:14:18.085Z,90.82
2022-11-25T03:16:46.446Z,90.82
2022-11-25T03:19:14.834Z,90.83
2022-11-25T03:21:43.029Z,90.80
2022-11-25T03:24:11.235Z,90.78
2022-11-25T03:26:39.348Z,90.76
2022-11-25T03:29:08.035Z,90.75
2022-11-25T03:31:36.279Z,90.77
2022-11-25T03:34:04.429Z,90.80
2022-11-25T03:36:32.462Z,90.80
2022-11-25T03:39:01.555Z,90.85
2022-11-25T03:41:29.845Z,90.86
2022-11-25T03:43:58.010Z,90.81
2022-11-25T03:46:26.289Z,90.83
2022-11-25T03:48:54.659Z,90.89
2022-11-25T03:51:22.838Z,90.92
2022-11-25T03:53:50.986Z,90.94
2022-11-25T03:56:18.961Z,90.98
2022-11-25T03:58:47.178Z,90.98
2022-11-25T04:01:15.384Z,91.00
2022-11-25T04:03:43.595Z,91.03
2022-11-25T04:06:11.899Z,91.03
2022-11-25T04:08:40.031Z,91.06
2022-11-25T04:11:08.319Z,91.06
2022-11-25T04:13:36.475Z,91.07
2022-11-25T04:16:05.010Z,91.13
2022-11-25T04:18:33.217Z,91.14
2022-11-25T04:21:01.531Z,91.16
2022-11-25T04:23:29.827Z,91.19
2022-11-25T04:25:57.985Z,91.23
2022-11-25T04:28:26.166Z,91.20
2022-11-25T04:30:54.530Z,91.19
2022-11-25T04:33:22.707Z,91.21
2022-11-25T04:35:50.831Z,91.23
2022-11-25T04:38:19.055Z,91.23
2022-11-25T04:40:47.175Z,91.21
2022-11-25T04:43:15.355Z,91.16
2022-11-25T04:46:12.393Z,91.19
2022-11-25T04:48:32.066Z,91.35
2022-11-25T04:51:00.253Z,91.42
2022-11-25T04:53:28.450Z,91.47
2022-11-25T04:55:56.575Z,91.61
2022-11-25T04:58:43.290Z,92.02
2022-11-25T05:01:11.552Z,92.32
2022-11-25T05:03:43.562Z,92.27
2022-11-25T05:06:15.005Z,92.32
2022-11-25T05:08:43.226Z,92.27
2022-11-25T05:11:11.504Z,92.41
2022-11-25T05:13:39.787Z,92.50
2022-11-25T05:16:08.206Z,92.60
2022-11-25T05:18:36.250Z,92.73
2022-11-25T05:21:05.356Z,92.83
2022-11-25T05:23:33.636Z,92.87
2022-11-25T05:26:03.696Z,92.93
2022-11-25T05:28:32.668Z,92.95
2022-11-25T05:31:00.900Z,92.98
2022-11-25T05:33:29.387Z,92.99
2022-11-25T05:36:17.475Z,93.00
2022-11-25T05:38:45.491Z,93.03
2022-11-25T05:41:13.686Z,93.02
2022-11-25T05:43:42.144Z,93.04
2022-11-25T05:46:10.870Z,93.07
2022-11-25T05:48:39.123Z,93.09
2022-11-25T05:51:07.565Z,93.09
2022-11-25T05:53:36.235Z,93.10
2022-11-25T05:56:07.107Z,93.12
2022-11-25T05:58:35.406Z,93.03
2022-11-25T06:01:08.937Z,92.93
2022-11-25T06:03:38.069Z,92.87
2022-11-25T06:06:08.298Z,92.96
2022-11-25T06:08:38.497Z,93.04
2022-11-25T06:11:12.281Z,93.12
2022-11-25T06:13:42.011Z,93.27
2022-11-25T06:16:11.942Z,93.26
2022-11-25T06:18:40.160Z,93.42
2022-11-25T06:21:10.414Z,93.52
2022-11-25T06:23:39.091Z,93.56
2022-11-25T06:26:10.935Z,93.63
2022-11-25T06:28:39.091Z,93.64
2022-11-25T06:31:08.897Z,93.50
2022-11-25T06:33:37.598Z,93.50
2022-11-25T06:36:09.027Z,93.61
2022-11-25T06:38:37.235Z,93.69
2022-11-25T06:41:06.116Z,93.73
2022-11-25T06:43:34.346Z,93.78
2022-11-25T06:46:06.038Z,93.78
2022-11-25T06:48:35.042Z,93.74
2022-11-25T06:51:07.222Z,93.80
2022-11-25T06:53:36.110Z,93.77
2022-11-25T06:56:05.785Z,93.82
2022-11-25T06:58:36.692Z,93.85
2022-11-25T07:01:13.537Z,93.83
2022-11-25T07:03:43.173Z,93.79
2022-11-25T07:06:18.666Z,93.74
2022-11-25T07:08:47.820Z,93.69
2022-11-25T07:11:21.556Z,93.65
2022-11-25T07:13:54.035Z,93.59
2022-11-25T07:16:22.439Z,93.52
2022-11-25T07:18:50.970Z,93.48
2022-11-25T07:21:24.100Z,93.42
2022-11-25T07:23:53.075Z,93.35
2022-11-25T07:26:24.419Z,93.29
2022-11-25T07:28:57.957Z,93.04
2022-11-25T07:31:33.894Z,92.46
2022-11-25T07:34:10.587Z,92.03
2022-11-25T07:36:39.330Z,92.05
2022-11-25T07:39:11.416Z,91.81
2022-11-25T07:41:41.059Z,91.63
2022-11-25T07:44:13.492Z,91.16
2022-11-25T07:46:44.962Z,90.98
2022-11-25T07:49:16.200Z,91.04
2022-11-25T07:51:51.176Z,91.23
2022-11-25T07:54:21.417Z,90.93
2022-11-25T07:56:51.523Z,90.77
2022-11-25T07:59:22.002Z,90.52
2022-11-25T08:01:55.186Z,90.47
2022-11-25T08:04:23.897Z,90.68
2022-11-25T08:06:53.476Z,90.64
2022-11-25T08:09:28.102Z,90.39
2022-11-25T08:11:56.395Z,90.39
2022-11-25T08:14:26.217Z,90.33
2022-11-25T08:16:54.666Z,90.43
2022-11-25T08:19:28.413Z,90.45
2022-11-25T08:22:00.215Z,90.33
2022-11-25T08:24:28.447Z,90.15
2022-11-25T08:26:58.944Z,90.12
2022-11-25T08:29:27.163Z,90.19
2022-11-25T08:31:55.332Z,90.04
2022-11-25T08:34:25.934Z,90.13
2022-11-25T08:36:54.202Z,90.02
2022-11-25T08:39:50.477Z,89.86
2022-11-25T08:42:11.068Z,89.87
2022-11-25T08:44:39.305Z,89.81
2022-11-25T08:47:07.516Z,89.73
2022-11-25T08:49:40.755Z,89.48
2022-11-25T08:52:10.782Z,89.30
2022-11-25T08:54:39.048Z,89.28
2022-11-25T08:57:07.235Z,89.27
2022-11-25T08:59:36.170Z,89.24
2022-11-25T09:02:07.145Z,89.16
2022-11-25T09:04:35.963Z,89.21
2022-11-25T09:07:05.203Z,89.29
2022-11-25T09:09:33.698Z,89.03
2022-11-25T09:12:02.302Z,89.15
2022-11-25T09:14:30.520Z,89.42
2022-11-25T09:16:58.757Z,89.55
2022-11-25T09:19:26.903Z,89.65
2022-11-25T09:21:55.206Z,89.57
2022-11-25T09:24:23.275Z,89.48
2022-11-25T09:26:51.542Z,89.40
2022-11-25T09:29:19.678Z,89.46
2022-11-25T09:31:51.460Z,89.20
2022-11-25T09:34:23.086Z,89.28
2022-11-25T09:36:52.027Z,89.15
2022-11-25T09:39:20.261Z,89.34
2022-11-25T09:42:12.264Z,89.38
2022-11-25T09:45:30.657Z,89.41
2022-11-25T09:48:01.669Z,89.68
2022-11-25T09:50:50.786Z,89.57
2022-11-25T09:53:33.937Z,89.51
2022-11-25T09:56:18.036Z,89.45
2022-11-25T09:58:56.017Z,89.50
2022-11-25T10:01:30.358Z,89.59
2022-11-25T10:04:05.566Z,89.67
2022-11-25T10:06:41.227Z,89.80
2022-11-25T10:09:16.523Z,89.82
2022-11-25T10:11:57.271Z,89.70
2022-11-25T10:14:39.699Z,89.75
2022-11-25T10:17:23.242Z,89.96
2022-11-25T10:19:51.839Z,90.26
2022-11-25T10:22:42.326Z,90.38
2022-11-25T10:25:43.340Z,90.40
2022-11-25T10:28:27.097Z,90.51
2022-11-25T10:31:04.789Z,90.77
2022-11-25T10:33:58.861Z,90.81
2022-11-25T10:36:34.360Z,90.92
2022-11-25T10:39:17.919Z,90.99
2022-11-25T10:46:14.524Z,90.88
2022-11-25T10:48:47.608Z,90.87
2022-11-25T10:51:30.732Z,90.98
2022-11-25T10:54:15.749Z,91.13
2022-11-25T10:56:57.165Z,91.11
2022-11-25T10:59:25.346Z,91.04
2022-11-25T11:02:06.681Z,90.95
2022-11-25T11:04:37.041Z,91.00
2022-11-25T11:07:22.012Z,90.92
2022-11-25T11:09:50.771Z,90.81
2022-11-25T11:12:26.359Z,90.74
2022-11-25T11:15:31.256Z,90.70
2022-11-25T11:18:30.547Z,90.76
2022-11-25T11:21:00.538Z,90.74
2022-11-25T11:23:29.755Z,90.67
2022-11-25T11:26:10.749Z,90.64
2022-11-25T11:28:41.815Z,90.52
2022-11-25T11:31:21.085Z,90.42
2022-11-25T11:34:07.437Z,90.65
2022-11-25T11:37:00.524Z,90.87
2022-11-25T11:40:01.273Z,90.90
2022-11-25T11:42:32.340Z,90.83
2022-11-25T11:45:00.617Z,90.91
2022-11-25T11:47:37.792Z,90.76
2022-11-25T11:50:19.340Z,90.74
2022-11-25T11:52:59.375Z,90.68
2022-11-25T11:56:18.897Z,90.65
2022-11-25T11:59:03.322Z,90.76
2022-11-25T12:02:01.392Z,90.65
2022-11-25T12:04:52.426Z,90.73
2022-11-25T12:07:57.337Z,90.78
2022-11-25T12:11:05.328Z,90.77
2022-11-25T12:13:44.285Z,90.86
2022-11-25T12:16:18.397Z,90.80
2022-11-25T12:18:58.915Z,90.99
2022-11-25T12:21:48.618Z,91.05
2022-11-25T12:24:29.846Z,91.07
2022-11-25T12:27:28.071Z,90.88
2022-11-25T12:30:02.576Z,90.88
2022-11-25T12:32:53.615Z,90.87
2022-11-25T12:35:40.618Z,90.76
2022-11-25T12:38:26.199Z,90.82
2022-11-25T12:41:05.141Z,90.75
2022-11-25T12:43:43.171Z,90.64
2022-11-25T12:46:20.447Z,90.83
2022-11-25T12:48:48.831Z,90.73
2022-11-25T12:51:21.006Z,90.77
2022-11-25T12:54:07.955Z,90.86
2022-11-25T12:57:05.342Z,90.81
2022-11-25T13:04:02.450Z,90.78
2022-11-25T13:06:47.117Z,90.80
2022-11-25T13:09:34.115Z,90.86
2022-11-25T13:12:08.532Z,90.87
2022-11-25T13:14:56.182Z,90.91
2022-11-25T13:17:26.102Z,90.80
2022-11-25T13:20:32.516Z,90.77
2022-11-25T13:23:10.916Z,90.89
2022-11-25T13:25:42.855Z,90.87
2022-11-25T13:28:33.275Z,90.96
2022-11-25T13:31:13.653Z,91.02
2022-11-25T13:33:44.672Z,91.08
2022-11-25T13:36:18.554Z,91.15
2022-11-25T13:38:49.393Z,91.20
2022-11-25T13:41:20.276Z,91.22
2022-11-25T13:44:14.775Z,91.30
2022-11-25T13:46:53.010Z,91.48
2022-11-25T13:49:27.175Z,91.42
2022-11-25T13:52:00.204Z,91.42
2022-11-25T13:54:47.168Z,91.42
2022-11-25T13:57:24.237Z,91.44
2022-11-25T13:59:54.006Z,91.52
2022-11-25T14:02:45.796Z,91.47
2022-11-25T14:05:25.396Z,91.54
2022-11-25T14:08:26.641Z,91.48
2022-11-25T14:11:20.426Z,91.52
2022-11-25T14:14:14.487Z,91.47
2022-11-25T14:16:57.790Z,91.49
2022-11-25T14:20:04.194Z,91.39
2022-11-25T14:22:50.314Z,91.56
2022-11-25T14:25:29.407Z,91.65
2022-11-25T14:28:10.899Z,91.71
2022-11-25T14:31:07.611Z,91.82
2022-11-25T14:33:48.920Z,91.96
2022-11-25T14:36:25.226Z,91.90
2022-11-25T14:39:02.455Z,92.01
2022-11-25T14:41:33.058Z,92.03
2022-11-25T14:44:07.381Z,92.05
2022-11-25T14:46:54.764Z,92.17
2022-11-25T14:49:48.892Z,92.21
2022-11-25T14:52:18.937Z,92.24
2022-11-25T14:54:47.363Z,92.26
2022-11-25T14:57:21.352Z,92.22
2022-11-25T14:59:50.389Z,92.21
2022-11-25T15:02:32.154Z,92.25
2022-11-25T15:05:17.225Z,92.34
2022-11-25T15:07:57.920Z,92.34
2022-11-25T15:10:31.306Z,92.23
2022-11-25T15:13:03.216Z,92.30
2022-11-25T15:15:31.319Z,92.41
2022-11-25T15:18:05.882Z,92.43
2022-11-25T15:20:35.471Z,92.44
2022-11-25T15:23:04.667Z,92.47
2022-11-25T15:25:32.899Z,92.41
2022-11-25T15:28:01.115Z,92.32
2022-11-25T15:30:29.788Z,92.21
2022-11-25T15:32:58.649Z,92.27
2022-11-25T15:35:27.797Z,92.38
2022-11-25T15:37:55.975Z,92.52
2022-11-25T15:40:37.955Z,92.58
2022-11-25T15:43:21.143Z,92.72
2022-11-25T15:45:52.993Z,92.75
2022-11-25T15:48:31.394Z,92.71
2022-11-25T15:51:22.246Z,92.74
2022-11-25T15:54:06.227Z,92.72
2022-11-25T15:56:39.798Z,92.73
2022-11-25T15:59:46.827Z,92.61
2022-11-25T16:02:36.791Z,92.74
2022-11-25T16:05:14.630Z,92.76
2022-11-25T16:07:51.866Z,92.69
2022-11-25T16:10:22.505Z,92.81
2022-11-25T16:13:22.711Z,92.83
2022-11-25T16:15:53.437Z,92.94
2022-11-25T16:18:40.269Z,92.94
2022-11-25T16:21:16.097Z,93.04
2022-11-25T16:23:53.320Z,93.01
2022-11-25T16:26:37.897Z,92.93
2022-11-25T16:29:20.713Z,92.98
2022-11-25T16:31:49.247Z,92.94
2022-11-25T16:34:20.545Z,92.92
2022-11-25T16:36:48.778Z,92.83
2022-11-25T16:39:16.945Z,92.90
2022-11-25T16:41:55.926Z,92.93
2022-11-25T16:44:26.762Z,92.99
2022-11-25T16:46:55.047Z,93.07
2022-11-25T16:49:26.679Z,93.11
2022-11-25T16:51:54.912Z,93.08
2022-11-25T16:54:23.829Z,93.05
2022-11-25T16:56:55.335Z,93.19
2022-11-25T16:59:32.170Z,93.28
2022-11-25T17:02:01.555Z,93.30
2022-11-25T17:04:29.946Z,93.30
2022-11-25T17:07:31.247Z,93.29
2022-11-25T17:09:46.824Z,93.32
2022-11-25T17:12:20.501Z,93.36
2022-11-25T17:14:49.381Z,93.38
2022-11-25T17:17:24.938Z,93.39
2022-11-25T17:19:53.546Z,93.26
2022-11-25T17:22:25.967Z,93.24
2022-11-25T17:24:54.223Z,93.32
2022-11-25T17:27:29.901Z,93.36
2022-11-25T17:30:01.774Z,93.44
2022-11-25T17:32:31.188Z,93.42
2022-11-25T17:34:59.716Z,93.43
2022-11-25T17:37:31.206Z,93.36
2022-11-25T17:39:59.661Z,93.37
2022-11-25T17:42:32.470Z,93.20
2022-11-25T17:45:01.202Z,93.08
2022-11-25T17:47:29.509Z,93.19
2022-11-25T17:49:58.140Z,93.39
2022-11-25T17:52:26.392Z,93.50
2022-11-25T17:54:54.614Z,93.56
2022-11-25T17:57:23.482Z,93.61
2022-11-25T17:59:51.647Z,93.64
2022-11-25T18:02:21.997Z,93.70
2022-11-25T18:04:50.680Z,93.74
2022-11-25T18:07:19.230Z,93.71
2022-11-25T18:09:47.667Z,93.83
2022-11-25T18:12:23.449Z,93.91
2022-11-25T18:14:51.604Z,93.96
2022-11-25T18:17:19.992Z,94.03
2022-11-25T18:19:55.065Z,94.08
2022-11-25T18:22:24.332Z,94.22
2022-11-25T18:24:54.108Z,94.26
2022-11-25T18:27:27.373Z,94.24
2022-11-25T18:29:57.397Z,94.15
2022-11-25T18:32:25.806Z,94.23
2022-11-25T18:34:54.062Z,94.30
2022-11-25T18:37:22.247Z,94.24
2022-11-25T18:39:50.525Z,94.25
2022-11-25T18:42:27.987Z,94.18
2022-11-25T18:44:56.926Z,94.27
2022-11-25T18:47:25.273Z,94.34
2022-11-25T18:49:56.140Z,94.39
2022-11-25T18:52:25.324Z,94.39
2022-11-25T18:54:53.546Z,94.40
2022-11-25T18:57:21.679Z,94.39
2022-11-25T19:00:00.218Z,94.40
2022-11-25T19:02:38.466Z,94.53
2022-11-25T19:05:16.476Z,94.56
2022-11-25T19:07:48.629Z,94.45
2022-11-25T19:10:17.626Z,94.47
2022-11-25T19:12:50.382Z,94.59
2022-11-25T19:15:23.877Z,94.59
2022-11-25T19:17:57.211Z,94.60
2022-11-25T19:20:29.192Z,94.67
2022-11-25T19:23:00.867Z,94.71
2022-11-25T19:25:29.934Z,94.72
2022-11-25T19:28:00.403Z,94.61
2022-11-25T19:30:33.175Z,94.68
2022-11-25T19:33:02.383Z,94.73
2022-11-25T19:35:37.716Z,94.73
2022-11-25T19:38:37.994Z,94.75
2022-11-25T19:41:06.276Z,94.84
2022-11-25T19:43:34.568Z,94.79
2022-11-25T19:46:03.748Z,94.77
2022-11-25T19:48:39.029Z,94.82
2022-11-25T19:51:18.155Z,94.85
2022-11-25T19:53:46.236Z,94.97
2022-11-25T19:56:27.855Z,94.90
2022-11-25T19:58:57.073Z,94.93
2022-11-25T20:01:33.107Z,94.95
2022-11-25T20:04:03.551Z,95.03
2022-11-25T20:06:32.346Z,95.00
2022-11-25T20:09:06.486Z,94.99
2022-11-25T20:11:36.971Z,95.08
2022-11-25T20:14:05.592Z,94.93
2022-11-25T20:16:40.194Z,95.00
2022-11-25T20:19:17.176Z,95.14
2022-11-25T20:21:46.870Z,95.06
2022-11-25T20:24:19.881Z,95.00
2022-11-25T20:26:49.131Z,94.96
2022-11-25T20:29:27.345Z,95.03
2022-11-25T20:31:58.620Z,94.98
2022-11-25T20:34:28.466Z,94.94
2022-11-25T20:36:56.846Z,95.01
2022-11-25T20:39:25.461Z,95.11
2022-11-25T20:41:53.820Z,95.11
2022-11-25T20:44:22.076Z,95.05
2022-11-25T20:46:50.297Z,95.08
2022-11-25T20:49:25.849Z,95.09
2022-11-25T20:51:54.432Z,95.05
2022-11-25T20:54:25.397Z,94.99
2022-11-25T20:56:56.692Z,94.98
2022-11-25T20:59:25.410Z,95.04
2022-11-25T21:01:54.907Z,95.14
2022-11-25T21:04:23.506Z,95.11
2022-11-25T21:06:51.933Z,95.11
2022-11-25T21:09:25.180Z,95.17
2022-11-25T21:11:53.575Z,95.21
2022-11-25T21:14:21.790Z,95.29
2022-11-25T21:16:50.058Z,95.29
2022-11-25T21:19:19.137Z,95.22
2022-11-25T21:21:50.076Z,95.21
2022-11-25T21:24:45.406Z,95.29
2022-11-25T21:27:16.063Z,95.32
2022-11-25T21:29:46.460Z,95.28
2022-11-25T21:32:21.796Z,95.34
2022-11-25T21:34:50.921Z,95.37
2022-11-25T21:37:42.098Z,95.30
2022-11-25T21:40:22.462Z,95.41
2022-11-25T21:42:50.979Z,95.46
2022-11-25T21:45:19.616Z,95.49
2022-11-25T21:47:47.957Z,95.45
2022-11-25T21:50:18.098Z,95.35
2022-11-25T21:52:46.331Z,95.28
2022-11-25T21:55:16.941Z,95.35
2022-11-25T21:57:45.325Z,95.45
2022-11-25T22:00:21.837Z,95.51
2022-11-25T22:02:53.162Z,95.62
2022-11-25T22:05:26.115Z,95.58
2022-11-25T22:07:55.226Z,95.54
2022-11-25T22:10:24.325Z,95.48
2022-11-25T22:12:52.542Z,95.51
2022-11-25T22:15:23.271Z,95.53
2022-11-25T22:17:56.917Z,95.57
2022-11-25T22:20:34.355Z,95.59
2022-11-25T22:23:10.176Z,95.65
2022-11-25T22:25:38.387Z,95.63
2022-11-25T22:28:06.816Z,95.60
2022-11-25T22:30:35.052Z,95.64
2022-11-25T22:33:03.956Z,95.61
2022-11-25T22:35:32.275Z,95.55
2022-11-25T22:38:00.490Z,95.54
2022-11-25T22:40:29.056Z,95.55
2022-11-25T22:42:57.277Z,95.55
2022-11-25T22:45:30.975Z,95.63
2022-11-25T22:48:06.094Z,95.60
2022-11-25T22:50:35.076Z,95.61
2022-11-25T22:53:03.183Z,95.61
2022-11-25T22:55:33.815Z,95.67
2022-11-25T22:58:04.806Z,95.66
2022-11-25T23:00:37.832Z,95.68
2022-11-25T23:03:15.980Z,95.68
2022-11-25T23:05:44.440Z,95.67
2022-11-25T23:08:19.976Z,95.66
2022-11-25T23:10:50.706Z,95.62
2022-11-25T23:13:20.644Z,95.61
2022-11-25T23:15:55.567Z,95.64
2022-11-25T23:18:36.777Z,95.65
2022-11-25T23:21:15.871Z,95.70
2022-11-25T23:23:44.295Z,95.67
2022-11-25T23:26:13.767Z,95.71
2022-11-25T23:28:42.293Z,95.69
2022-11-25T23:31:14.561Z,95.68
2022-11-25T23:33:50.117Z,95.69
2022-11-25T23:36:21.997Z,95.69
2022-11-25T23:38:57.293Z,95.67
2022-11-25T23:41:28.314Z,95.52
2022-11-25T23:43:58.809Z,95.50
2022-11-25T23:46:33.342Z,95.39
2022-11-25T23:49:04.846Z,95.44
2022-11-25T23:51:33.570Z,95.60
2022-11-25T23:54:01.982Z,95.65
2022-11-25T23:56:30.137Z,95.66
2022-11-25T23:58:58.334Z,95.65
